createdAt,value
2018-07-13T00:00:08.520Z,0
2018-07-13T00:01:08.232Z,0
2018-07-13T00:02:08.250Z,0
2018-07-13T00:03:09.032Z,0
2018-07-13T00:04:08.483Z,0
2018-07-13T00:05:08.556Z,0
2018-07-13T00:06:08.239Z,0
2018-07-13T00:07:08.756Z,0
2018-07-13T00:08:08.229Z,0
2018-07-13T00:09:08.748Z,0
2018-07-13T00:10:08.279Z,0
2018-07-13T00:11:08.505Z,0
2018-07-13T00:12:08.007Z,0
2018-07-13T00:13:09.527Z,0
2018-07-13T00:14:08.490Z,0
2018-07-13T00:15:08.036Z,0
2018-07-13T00:16:08.506Z,0
2018-07-13T00:17:08.238Z,0
2018-07-13T00:18:08.489Z,0
2018-07-13T00:19:08.255Z,0
2018-07-13T00:20:08.289Z,0
2018-07-13T00:21:08.255Z,0
2018-07-13T00:22:07.840Z,0
2018-07-13T00:23:08.489Z,0
2018-07-13T00:24:08.502Z,0
2018-07-13T00:25:08.617Z,0
2018-07-13T00:26:08.242Z,0
2018-07-13T00:27:08.003Z,0
2018-07-13T00:28:08.480Z,0
2018-07-13T00:29:08.492Z,0
2018-07-13T00:30:08.435Z,0
2018-07-13T00:31:08.489Z,0
2018-07-13T00:32:08.241Z,0
2018-07-13T00:33:07.990Z,0
2018-07-13T00:34:08.498Z,0
2018-07-13T00:35:08.503Z,0
2018-07-13T00:36:07.994Z,0
2018-07-13T00:37:08.495Z,0
2018-07-13T00:38:08.506Z,0
2018-07-13T00:39:08.259Z,0
2018-07-13T00:40:08.010Z,0
2018-07-13T00:41:08.236Z,0
2018-07-13T00:42:08.244Z,0
2018-07-13T00:43:07.978Z,0
2018-07-13T00:44:10.615Z,0
2018-07-13T00:45:08.048Z,0
2018-07-13T00:46:08.492Z,0
2018-07-13T00:47:08.749Z,0
2018-07-13T00:48:08.489Z,0
2018-07-13T00:49:08.232Z,0
2018-07-13T00:50:08.063Z,0
2018-07-13T00:51:08.553Z,0
2018-07-13T00:52:08.272Z,0
2018-07-13T00:53:08.513Z,0
2018-07-13T00:54:08.530Z,0
2018-07-13T00:55:08.334Z,0
2018-07-13T00:56:08.455Z,0
2018-07-13T00:57:08.830Z,0
2018-07-13T00:58:08.255Z,0
2018-07-13T00:59:09.056Z,0
2018-07-13T01:00:08.876Z,0
2018-07-13T01:01:08.266Z,0
2018-07-13T01:02:08.500Z,0
2018-07-13T01:03:08.279Z,0
2018-07-13T01:04:08.517Z,0
2018-07-13T01:05:08.080Z,0
2018-07-13T01:06:08.004Z,0
2018-07-13T01:07:08.743Z,0
2018-07-13T01:08:07.998Z,0
2018-07-13T01:09:08.281Z,0
2018-07-13T01:10:08.697Z,0
2018-07-13T01:11:08.282Z,0
2018-07-13T01:12:08.503Z,0
2018-07-13T01:13:08.010Z,0
2018-07-13T01:14:08.503Z,0
2018-07-13T01:15:08.657Z,0
2018-07-13T01:16:08.277Z,0
2018-07-13T01:17:08.508Z,0
2018-07-13T01:18:08.500Z,0
2018-07-13T01:19:08.806Z,0
2018-07-13T01:20:08.509Z,0
2018-07-13T01:21:08.051Z,0
2018-07-13T01:22:08.769Z,0
2018-07-13T01:23:08.523Z,0
2018-07-13T01:24:08.261Z,0
2018-07-13T01:25:08.656Z,0
2018-07-13T01:26:08.506Z,0
2018-07-13T01:27:08.520Z,0
2018-07-13T01:28:08.267Z,0
2018-07-13T01:29:08.243Z,0
2018-07-13T01:30:08.630Z,0
2018-07-13T01:31:08.787Z,0
2018-07-13T01:32:08.767Z,0
2018-07-13T01:33:08.502Z,0
2018-07-13T01:34:07.987Z,0
2018-07-13T01:35:08.639Z,0
2018-07-13T01:36:08.497Z,0
2018-07-13T01:37:08.244Z,0
2018-07-13T01:38:08.490Z,0
2018-07-13T01:39:08.524Z,0
2018-07-13T01:40:08.667Z,0
2018-07-13T01:41:08.268Z,0
2018-07-13T01:42:08.490Z,0
2018-07-13T01:43:07.993Z,0
2018-07-13T01:44:08.481Z,0
2018-07-13T01:45:08.336Z,0
2018-07-13T01:46:07.987Z,0
2018-07-13T01:47:08.487Z,0
2018-07-13T01:48:08.240Z,0
2018-07-13T01:49:08.237Z,0
2018-07-13T01:50:08.445Z,0
2018-07-13T01:51:08.508Z,0
2018-07-13T01:52:08.264Z,0
2018-07-13T01:53:08.247Z,0
2018-07-13T01:54:07.983Z,0
2018-07-13T01:55:08.335Z,0
2018-07-13T01:56:07.994Z,0
2018-07-13T01:57:08.494Z,0
2018-07-13T01:58:08.761Z,0
2018-07-13T01:59:08.503Z,0
2018-07-13T02:00:08.359Z,0
2018-07-13T02:01:08.247Z,0
2018-07-13T02:02:07.989Z,0
2018-07-13T02:03:08.226Z,0
2018-07-13T02:04:08.488Z,0
2018-07-13T02:05:08.617Z,0
2018-07-13T02:06:08.492Z,0
2018-07-13T02:07:08.247Z,0
2018-07-13T02:08:08.507Z,0
2018-07-13T02:09:08.227Z,0
2018-07-13T02:10:08.366Z,0
2018-07-13T02:11:08.497Z,0
2018-07-13T02:12:08.470Z,0
2018-07-13T02:13:07.971Z,0
2018-07-13T02:14:08.478Z,0
2018-07-13T02:15:08.602Z,0
2018-07-13T02:16:08.738Z,0
2018-07-13T02:17:08.502Z,0
2018-07-13T02:18:07.977Z,0
2018-07-13T02:19:08.745Z,0
2018-07-13T02:20:08.288Z,0
2018-07-13T02:21:08.758Z,0
2018-07-13T02:22:08.469Z,0
2018-07-13T02:23:08.298Z,0
2018-07-13T02:24:08.482Z,0
2018-07-13T02:25:08.294Z,0
2018-07-13T02:26:08.506Z,0
2018-07-13T02:27:08.228Z,0
2018-07-13T02:28:08.494Z,0
2018-07-13T02:29:08.469Z,0
2018-07-13T02:30:09.079Z,0
2018-07-13T02:31:08.472Z,0
2018-07-13T02:32:08.489Z,0
2018-07-13T02:33:08.470Z,0
2018-07-13T02:34:08.758Z,0
2018-07-13T02:35:08.595Z,0
2018-07-13T02:36:08.467Z,0
2018-07-13T02:37:08.291Z,0
2018-07-13T02:38:08.226Z,0
2018-07-13T02:39:08.539Z,0
2018-07-13T02:40:07.912Z,0
2018-07-13T02:41:08.229Z,0
2018-07-13T02:42:08.220Z,0
2018-07-13T02:43:07.952Z,0
2018-07-13T02:44:08.498Z,0
2018-07-13T02:45:08.586Z,0
2018-07-13T02:46:08.212Z,0
2018-07-13T02:47:08.502Z,0
2018-07-13T02:48:08.755Z,0
2018-07-13T02:49:08.203Z,0
2018-07-13T02:50:08.644Z,0
2018-07-13T02:51:08.467Z,0
2018-07-13T02:52:08.732Z,0
2018-07-13T02:53:07.976Z,0
2018-07-13T02:54:08.519Z,0
2018-07-13T02:55:08.703Z,0
2018-07-13T02:56:08.244Z,0
2018-07-13T02:57:08.467Z,0
2018-07-13T02:58:08.729Z,0
2018-07-13T02:59:07.944Z,0
2018-07-13T03:00:08.571Z,0
2018-07-13T03:01:08.199Z,0
2018-07-13T03:02:08.455Z,0
2018-07-13T03:03:07.720Z,0
2018-07-13T03:04:08.458Z,0
2018-07-13T03:05:08.614Z,0
2018-07-13T03:06:08.209Z,0
2018-07-13T03:07:08.207Z,0
2018-07-13T03:08:08.208Z,0
2018-07-13T03:09:08.728Z,0
2018-07-13T03:10:08.819Z,0
2018-07-13T03:11:08.205Z,0
2018-07-13T03:12:08.445Z,0
2018-07-13T03:13:08.712Z,0
2018-07-13T03:14:08.967Z,0
2018-07-13T03:15:08.642Z,0
2018-07-13T03:16:07.934Z,0
2018-07-13T03:17:08.175Z,0
2018-07-13T03:18:08.192Z,0
2018-07-13T03:19:08.448Z,0
2018-07-13T03:20:08.576Z,0
2018-07-13T03:21:08.275Z,0
2018-07-13T03:22:08.324Z,0
2018-07-13T03:23:08.728Z,0
2018-07-13T03:24:08.203Z,0
2018-07-13T03:25:08.614Z,5
2018-07-13T03:26:08.209Z,5
2018-07-13T03:27:07.947Z,5
2018-07-13T03:28:08.484Z,5
2018-07-13T03:29:08.700Z,5
2018-07-13T03:30:08.324Z,5
2018-07-13T03:31:08.196Z,5
2018-07-13T03:32:08.718Z,5
2018-07-13T03:33:07.926Z,5
2018-07-13T03:34:08.190Z,10
2018-07-13T03:35:08.667Z,10
2018-07-13T03:36:08.203Z,10
2018-07-13T03:37:08.433Z,10
2018-07-13T03:38:09.192Z,10
2018-07-13T03:39:08.441Z,10
2018-07-13T03:40:08.558Z,10
2018-07-13T03:41:08.432Z,15
2018-07-13T03:42:08.479Z,15
2018-07-13T03:43:08.173Z,15
2018-07-13T03:44:08.931Z,15
2018-07-13T03:45:08.706Z,15
2018-07-13T03:46:08.190Z,15
2018-07-13T03:47:07.975Z,20
2018-07-13T03:48:08.193Z,20
2018-07-13T03:49:08.412Z,20
2018-07-13T03:50:08.566Z,20
2018-07-13T03:51:08.164Z,25
2018-07-13T03:52:08.431Z,25
2018-07-13T03:53:08.428Z,25
2018-07-13T03:54:08.570Z,25
2018-07-13T03:55:08.303Z,30
2018-07-13T03:56:08.422Z,30
2018-07-13T03:57:08.420Z,30
2018-07-13T03:58:08.176Z,30
2018-07-13T03:59:08.167Z,35
2018-07-13T04:00:08.294Z,35
2018-07-13T04:01:08.460Z,35
2018-07-13T04:02:07.909Z,40
2018-07-13T04:03:08.389Z,40
2018-07-13T04:04:08.413Z,45
2018-07-13T04:05:08.460Z,60
2018-07-13T04:06:08.402Z,75
2018-07-13T04:07:08.817Z,85
2018-07-13T04:08:07.926Z,85
2018-07-13T04:09:08.228Z,90
2018-07-13T04:10:07.902Z,95
2018-07-13T04:11:08.409Z,100
2018-07-13T04:12:08.180Z,95
2018-07-13T04:13:07.892Z,95
2018-07-13T04:14:08.404Z,100
2018-07-13T04:15:08.314Z,110
2018-07-13T04:16:07.633Z,115
2018-07-13T04:17:08.676Z,120
2018-07-13T04:18:08.177Z,125
2018-07-13T04:19:07.897Z,130
2018-07-13T04:20:07.909Z,135
2018-07-13T04:21:08.121Z,140
2018-07-13T04:22:08.401Z,145
2018-07-13T04:23:08.137Z,150
2018-07-13T04:24:08.387Z,155
2018-07-13T04:25:08.500Z,160
2018-07-13T04:26:08.422Z,165
2018-07-13T04:27:08.148Z,170
2018-07-13T04:28:08.395Z,175
2018-07-13T04:29:08.695Z,185
2018-07-13T04:30:07.970Z,185
2018-07-13T04:31:08.398Z,190
2018-07-13T04:32:08.142Z,195
2018-07-13T04:33:08.160Z,200
2018-07-13T04:34:08.209Z,205
2018-07-13T04:35:08.235Z,205
2018-07-13T04:36:08.417Z,205
2018-07-13T04:37:07.909Z,215
2018-07-13T04:38:08.425Z,215
2018-07-13T04:39:08.421Z,215
2018-07-13T04:40:08.517Z,220
2018-07-13T04:41:08.791Z,220
2018-07-13T04:42:08.465Z,225
2018-07-13T04:43:08.426Z,230
2018-07-13T04:44:08.442Z,235
2018-07-13T04:45:08.574Z,235
2018-07-13T04:46:08.679Z,240
2018-07-13T04:47:08.421Z,250
2018-07-13T04:48:08.178Z,255
2018-07-13T04:49:08.179Z,255
2018-07-13T04:50:08.670Z,260
2018-07-13T04:51:07.934Z,265
2018-07-13T04:52:08.412Z,270
2018-07-13T04:53:08.167Z,275
2018-07-13T04:54:08.427Z,280
2018-07-13T04:55:08.348Z,280
2018-07-13T04:56:08.707Z,285
2018-07-13T04:57:08.704Z,290
2018-07-13T04:58:07.930Z,295
2018-07-13T04:59:08.426Z,295
2018-07-13T05:00:08.239Z,295
2018-07-13T05:01:08.200Z,295
2018-07-13T05:02:08.220Z,300
2018-07-13T05:03:08.497Z,300
2018-07-13T05:04:08.474Z,300
2018-07-13T05:05:08.596Z,305
2018-07-13T05:06:08.540Z,305
2018-07-13T05:07:08.481Z,310
2018-07-13T05:08:08.481Z,310
2018-07-13T05:09:08.546Z,315
2018-07-13T05:10:08.049Z,320
2018-07-13T05:11:08.764Z,325
2018-07-13T05:12:08.519Z,325
2018-07-13T05:13:07.996Z,325
2018-07-13T05:14:08.504Z,330
2018-07-13T05:15:08.887Z,335
2018-07-13T05:16:08.011Z,335
2018-07-13T05:17:07.773Z,340
2018-07-13T05:18:08.824Z,340
2018-07-13T05:19:08.543Z,345
2018-07-13T05:20:08.417Z,350
2018-07-13T05:21:08.560Z,350
2018-07-13T05:22:08.285Z,360
2018-07-13T05:23:08.799Z,365
2018-07-13T05:24:08.547Z,365
2018-07-13T05:25:08.587Z,370
2018-07-13T05:26:08.062Z,370
2018-07-13T05:27:08.345Z,375
2018-07-13T05:28:08.068Z,375
2018-07-13T05:29:08.848Z,375
2018-07-13T05:30:08.535Z,375
2018-07-13T05:31:08.345Z,380
2018-07-13T05:32:08.081Z,375
2018-07-13T05:33:08.341Z,375
2018-07-13T05:34:08.397Z,375
2018-07-13T05:35:08.405Z,375
2018-07-13T05:36:08.884Z,375
2018-07-13T05:37:08.638Z,380
2018-07-13T05:38:08.615Z,380
2018-07-13T05:39:08.446Z,380
2018-07-13T05:40:08.950Z,385
2018-07-13T05:41:08.666Z,385
2018-07-13T05:42:08.189Z,385
2018-07-13T05:43:08.904Z,385
2018-07-13T05:44:08.924Z,385
2018-07-13T05:45:09.186Z,385
2018-07-13T05:46:08.413Z,385
2018-07-13T05:47:08.422Z,395
2018-07-13T05:48:08.683Z,395
2018-07-13T05:49:08.696Z,400
2018-07-13T05:50:08.772Z,410
2018-07-13T05:51:08.440Z,405
2018-07-13T05:52:08.472Z,405
2018-07-13T05:53:08.684Z,385
2018-07-13T05:54:08.733Z,405
2018-07-13T05:55:08.758Z,410
2018-07-13T05:56:07.975Z,410
2018-07-13T05:57:08.498Z,405
2018-07-13T05:58:08.248Z,410
2018-07-13T05:59:08.751Z,410
2018-07-13T06:00:09.079Z,415
2018-07-13T06:01:08.257Z,410
2018-07-13T06:02:08.804Z,410
2018-07-13T06:03:08.274Z,405
2018-07-13T06:04:08.278Z,405
2018-07-13T06:05:08.718Z,405
2018-07-13T06:06:08.527Z,405
2018-07-13T06:07:09.062Z,410
2018-07-13T06:08:08.861Z,410
2018-07-13T06:09:08.319Z,405
2018-07-13T06:10:08.486Z,405
2018-07-13T06:11:08.604Z,400
2018-07-13T06:12:09.094Z,400
2018-07-13T06:13:08.622Z,400
2018-07-13T06:14:08.599Z,400
2018-07-13T06:23:52.673Z,405
2018-07-13T06:24:52.923Z,410
2018-07-13T06:25:52.733Z,410
2018-07-13T06:26:52.937Z,410
2018-07-13T06:27:52.965Z,410
2018-07-13T06:28:52.958Z,410
2018-07-13T06:29:52.699Z,415
2018-07-13T06:30:52.271Z,410
2018-07-13T06:31:52.461Z,410
2018-07-13T06:32:52.739Z,410
2018-07-13T06:33:52.714Z,410
2018-07-13T06:34:52.744Z,410
2018-07-13T06:35:52.991Z,410
2018-07-13T06:36:52.764Z,410
2018-07-13T06:37:53.016Z,410
2018-07-13T06:38:52.763Z,410
2018-07-13T06:39:52.765Z,365
2018-07-13T06:40:53.054Z,365
2018-07-13T06:41:52.783Z,420
2018-07-13T06:42:52.534Z,415
2018-07-13T06:43:52.545Z,415
2018-07-13T06:44:53.707Z,410
2018-07-13T06:45:53.153Z,410
2018-07-13T06:46:53.361Z,410
2018-07-13T06:47:53.372Z,415
2018-07-13T06:48:52.820Z,405
2018-07-13T06:49:52.832Z,405
2018-07-13T06:50:53.483Z,405
2018-07-13T06:51:53.124Z,410
2018-07-13T06:52:52.873Z,405
2018-07-13T06:53:52.626Z,405
2018-07-13T06:54:53.415Z,405
2018-07-13T06:55:52.968Z,405
2018-07-13T06:56:53.429Z,405
2018-07-13T06:57:52.635Z,405
2018-07-13T06:58:52.920Z,410
2018-07-13T06:59:53.159Z,410
2018-07-13T07:00:53.219Z,410
2018-07-13T07:01:53.185Z,405
2018-07-13T07:02:53.189Z,405
2018-07-13T07:03:53.193Z,400
2018-07-13T07:04:53.484Z,395
2018-07-13T07:05:53.221Z,390
2018-07-13T07:06:53.232Z,380
2018-07-13T07:07:53.083Z,375
2018-07-13T07:08:53.244Z,365
2018-07-13T07:09:53.001Z,365
2018-07-13T07:10:53.357Z,370
2018-07-13T07:11:53.016Z,370
2018-07-13T07:12:52.782Z,360
2018-07-13T07:13:53.040Z,355
2018-07-13T07:14:53.036Z,355
2018-07-13T07:15:53.328Z,360
2018-07-13T07:16:53.304Z,355
2018-07-13T07:17:54.017Z,355
2018-07-13T07:18:53.602Z,355
2018-07-13T07:19:53.324Z,370
2018-07-13T07:20:53.082Z,390
2018-07-13T07:21:52.845Z,390
2018-07-13T07:22:53.093Z,390
2018-07-13T07:23:53.617Z,390
2018-07-13T07:24:53.376Z,390
2018-07-13T07:25:53.153Z,390
2018-07-13T07:26:53.382Z,390
2018-07-13T07:27:53.127Z,390
2018-07-13T07:28:53.410Z,390
2018-07-13T07:29:53.435Z,390
2018-07-13T07:30:53.440Z,390
2018-07-13T07:31:52.917Z,390
2018-07-13T07:32:53.447Z,390
2018-07-13T07:33:53.184Z,390
2018-07-13T07:34:53.441Z,385
2018-07-13T07:35:53.204Z,385
2018-07-13T07:36:53.710Z,380
2018-07-13T07:37:53.552Z,390
2018-07-13T07:38:53.317Z,395
2018-07-13T07:39:53.500Z,395
2018-07-13T07:40:53.528Z,395
2018-07-13T07:41:53.490Z,395
2018-07-13T07:42:53.507Z,395
2018-07-13T07:43:53.910Z,395
2018-07-13T07:44:53.544Z,395
2018-07-13T07:45:53.572Z,400
2018-07-13T07:46:53.283Z,400
2018-07-13T07:47:53.797Z,395
2018-07-13T07:48:53.317Z,395
2018-07-13T07:49:53.839Z,395
2018-07-13T07:50:53.388Z,395
2018-07-13T07:51:53.328Z,400
2018-07-13T07:52:53.090Z,395
2018-07-13T07:53:53.604Z,400
2018-07-13T07:54:53.861Z,400
2018-07-13T07:55:53.395Z,395
2018-07-13T07:56:53.114Z,390
2018-07-13T07:57:53.633Z,395
2018-07-13T07:58:53.712Z,390
2018-07-13T07:59:53.420Z,395
2018-07-13T08:00:53.677Z,395
2018-07-13T08:01:54.126Z,390
2018-07-13T08:02:53.838Z,395
2018-07-13T08:03:53.961Z,415
2018-07-13T08:04:53.987Z,390
2018-07-13T08:05:53.820Z,390
2018-07-13T08:06:55.411Z,390
2018-07-13T08:07:53.725Z,390
2018-07-13T08:08:53.741Z,390
2018-07-13T08:09:53.486Z,390
2018-07-13T08:10:54.041Z,390
2018-07-13T08:11:53.557Z,390
2018-07-13T08:12:53.576Z,390
2018-07-13T08:13:53.627Z,390
2018-07-13T08:14:53.558Z,385
2018-07-13T08:15:54.094Z,390
2018-07-13T08:16:53.317Z,390
2018-07-13T08:17:53.602Z,390
2018-07-13T08:18:53.819Z,390
2018-07-13T08:19:53.917Z,385
2018-07-13T08:20:53.397Z,385
2018-07-13T08:21:53.853Z,380
2018-07-13T08:22:53.611Z,380
2018-07-13T08:23:53.639Z,380
2018-07-13T08:24:53.636Z,375
2018-07-13T08:25:53.647Z,375
2018-07-13T08:26:54.198Z,375
2018-07-13T08:27:53.400Z,370
2018-07-13T08:28:53.918Z,370
2018-07-13T08:29:53.923Z,365
2018-07-13T08:30:53.926Z,365
2018-07-13T08:31:53.932Z,365
2018-07-13T08:32:53.453Z,360
2018-07-13T08:33:53.972Z,360
2018-07-13T08:34:53.968Z,360
2018-07-13T08:35:53.985Z,360
2018-07-13T08:36:53.730Z,355
2018-07-13T08:37:54.652Z,355
2018-07-13T08:38:54.005Z,355
2018-07-13T08:39:54.282Z,355
2018-07-13T08:40:53.626Z,355
2018-07-13T08:41:53.270Z,350
2018-07-13T08:42:53.788Z,350
2018-07-13T08:43:53.846Z,350
2018-07-13T08:44:53.814Z,350
2018-07-13T08:45:54.446Z,350
2018-07-13T08:46:54.098Z,345
2018-07-13T08:47:54.094Z,345
2018-07-13T08:48:53.838Z,345
2018-07-13T08:49:53.845Z,345
2018-07-13T08:50:54.197Z,345
2018-07-13T08:51:54.795Z,345
2018-07-13T08:52:53.636Z,340
2018-07-13T08:53:53.948Z,340
2018-07-13T08:54:53.895Z,340
2018-07-13T08:55:54.258Z,340
2018-07-13T08:56:53.934Z,340
2018-07-13T08:57:54.184Z,340
2018-07-13T08:58:54.172Z,340
2018-07-13T08:59:54.938Z,340
2018-07-13T09:00:54.286Z,340
2018-07-13T09:01:54.757Z,340
2018-07-13T09:02:54.495Z,340
2018-07-13T09:03:53.757Z,340
2018-07-13T09:04:54.111Z,335
2018-07-13T09:05:54.752Z,335
2018-07-13T09:06:53.770Z,335
2018-07-13T09:07:53.998Z,330
2018-07-13T09:08:54.031Z,325
2018-07-13T09:09:54.284Z,320
2018-07-13T09:10:55.026Z,310
2018-07-13T09:11:54.363Z,315
2018-07-13T09:12:54.479Z,310
2018-07-13T09:13:54.090Z,310
2018-07-13T09:14:54.067Z,310
2018-07-13T09:15:54.331Z,305
2018-07-13T09:16:54.094Z,305
2018-07-13T09:17:54.331Z,305
2018-07-13T09:18:54.098Z,305
2018-07-13T09:19:54.108Z,305
2018-07-13T09:20:54.354Z,305
2018-07-13T09:21:53.870Z,305
2018-07-13T09:22:54.639Z,305
2018-07-13T09:23:54.395Z,305
2018-07-13T09:24:54.165Z,305
2018-07-13T09:25:54.157Z,305
2018-07-13T09:26:54.170Z,305
2018-07-13T09:27:54.186Z,305
2018-07-13T09:28:54.174Z,305
2018-07-13T09:29:54.207Z,305
2018-07-13T09:30:54.284Z,305
2018-07-13T09:31:54.212Z,305
2018-07-13T09:32:54.198Z,305
2018-07-13T09:33:54.537Z,305
2018-07-13T09:34:53.953Z,305
2018-07-13T09:35:54.520Z,305
2018-07-13T09:36:54.212Z,305
2018-07-13T09:37:54.796Z,305
2018-07-13T09:38:54.468Z,305
2018-07-13T09:39:54.495Z,305
2018-07-13T09:40:54.493Z,305
2018-07-13T09:41:54.743Z,305
2018-07-13T09:42:54.501Z,305
2018-07-13T09:43:54.516Z,310
2018-07-13T09:44:54.515Z,310
2018-07-13T09:45:54.535Z,310
2018-07-13T09:46:54.732Z,310
2018-07-13T09:47:54.262Z,305
2018-07-13T09:48:54.754Z,305
2018-07-13T09:49:54.518Z,310
2018-07-13T09:50:54.649Z,310
2018-07-13T09:51:54.826Z,310
2018-07-13T09:52:54.331Z,310
2018-07-13T09:53:55.264Z,310
2018-07-13T09:54:54.822Z,310
2018-07-13T09:55:54.909Z,310
2018-07-13T09:56:54.075Z,305
2018-07-13T09:57:54.891Z,305
2018-07-13T09:58:54.590Z,305
2018-07-13T09:59:54.618Z,305
2018-07-13T10:00:55.312Z,310
2018-07-13T10:01:54.607Z,310
2018-07-13T10:02:54.857Z,305
2018-07-13T10:03:54.347Z,305
2018-07-13T10:04:54.371Z,305
2018-07-13T10:05:54.893Z,300
2018-07-13T10:06:54.881Z,300
2018-07-13T10:07:54.893Z,300
2018-07-13T10:08:54.884Z,300
2018-07-13T10:09:54.881Z,300
2018-07-13T10:10:54.935Z,300
2018-07-13T10:11:54.634Z,300
2018-07-13T10:12:54.917Z,300
2018-07-13T10:13:54.417Z,300
2018-07-13T10:14:54.411Z,300
2018-07-13T10:15:55.050Z,300
2018-07-13T10:16:54.684Z,300
2018-07-13T10:17:54.935Z,300
2018-07-13T10:18:54.950Z,300
2018-07-13T10:19:54.951Z,300
2018-07-13T10:20:54.733Z,300
2018-07-13T10:21:54.669Z,300
2018-07-13T10:22:54.968Z,305
2018-07-13T10:54:21.232Z,290
2018-07-13T10:55:20.991Z,290
2018-07-13T10:56:21.201Z,285
2018-07-13T10:57:21.181Z,285
2018-07-13T10:58:20.437Z,285
2018-07-13T10:59:21.180Z,285
2018-07-13T11:00:21.232Z,285
2018-07-13T11:01:20.957Z,280
2018-07-13T11:02:21.456Z,280
2018-07-13T11:03:20.453Z,280
2018-07-13T11:04:20.712Z,280
2018-07-13T11:05:21.202Z,280
2018-07-13T11:06:21.253Z,280
2018-07-13T11:07:20.948Z,280
2018-07-13T11:08:20.973Z,280
2018-07-13T11:09:21.225Z,280
2018-07-13T11:10:20.980Z,285
2018-07-13T11:11:20.981Z,285
2018-07-13T11:12:21.015Z,285
2018-07-13T11:13:21.023Z,285
2018-07-13T11:14:21.017Z,290
2018-07-13T11:15:21.278Z,290
2018-07-13T11:16:21.264Z,290
2018-07-13T11:17:21.552Z,290
2018-07-13T11:18:21.307Z,290
2018-07-13T11:19:21.306Z,290
2018-07-13T11:20:21.013Z,290
2018-07-13T11:21:21.037Z,290
2018-07-13T11:22:20.784Z,295
2018-07-13T11:23:21.307Z,295
2018-07-13T11:24:21.915Z,285
2018-07-13T11:25:21.307Z,225
2018-07-13T11:26:21.581Z,230
2018-07-13T11:27:21.565Z,225
2018-07-13T11:28:21.079Z,220
2018-07-13T11:29:20.828Z,210
2018-07-13T11:30:21.594Z,210
2018-07-13T11:31:21.340Z,210
2018-07-13T11:32:21.406Z,210
2018-07-13T11:33:21.431Z,210
2018-07-13T11:34:21.361Z,215
2018-07-13T11:35:21.361Z,215
2018-07-13T11:36:21.396Z,245
2018-07-13T11:37:22.849Z,230
2018-07-13T11:38:21.379Z,225
2018-07-13T11:39:20.887Z,275
2018-07-13T11:40:21.398Z,280
2018-07-13T11:41:21.143Z,275
2018-07-13T11:42:20.920Z,275
2018-07-13T11:43:21.408Z,275
2018-07-13T11:44:22.861Z,275
2018-07-13T11:45:21.673Z,275
2018-07-13T11:46:21.421Z,280
2018-07-13T11:47:21.446Z,275
2018-07-13T11:48:21.693Z,275
2018-07-13T11:49:21.208Z,280
2018-07-13T11:50:21.469Z,280
2018-07-13T11:51:20.941Z,275
2018-07-13T11:52:21.305Z,280
2018-07-13T11:53:21.460Z,280
2018-07-13T11:54:21.478Z,280
2018-07-13T11:55:21.481Z,280
2018-07-13T11:56:21.513Z,285
2018-07-13T11:57:21.241Z,285
2018-07-13T11:58:21.749Z,290
2018-07-13T11:59:21.505Z,295
2018-07-13T12:00:21.503Z,295
2018-07-13T12:01:21.502Z,295
2018-07-13T12:02:21.529Z,290
2018-07-13T12:03:21.543Z,285
2018-07-13T12:04:21.530Z,290
2018-07-13T12:05:21.037Z,295
2018-07-13T12:06:21.539Z,295
2018-07-13T12:07:21.344Z,290
2018-07-13T12:08:21.310Z,290
2018-07-13T12:09:21.804Z,285
2018-07-13T12:10:21.598Z,280
2018-07-13T12:11:21.311Z,275
2018-07-13T12:12:21.317Z,270
2018-07-13T12:13:21.849Z,265
2018-07-13T12:14:21.438Z,260
2018-07-13T12:15:21.616Z,255
2018-07-13T12:16:21.621Z,255
2018-07-13T12:17:21.729Z,255
2018-07-13T12:18:21.370Z,255
2018-07-13T12:19:21.367Z,260
2018-07-13T12:20:21.404Z,260
2018-07-13T12:21:21.361Z,260
2018-07-13T12:22:21.636Z,260
2018-07-13T12:23:21.917Z,260
2018-07-13T12:24:21.129Z,255
2018-07-13T12:25:21.648Z,255
2018-07-13T12:26:21.144Z,260
2018-07-13T12:27:21.646Z,265
2018-07-13T12:28:21.672Z,265
2018-07-13T12:29:21.664Z,270
2018-07-13T12:30:21.428Z,265
2018-07-13T12:31:21.432Z,265
2018-07-13T12:32:21.766Z,260
2018-07-13T12:33:21.953Z,260
2018-07-13T12:34:21.443Z,255
2018-07-13T12:35:21.720Z,250
2018-07-13T12:36:21.719Z,245
2018-07-13T12:37:21.777Z,245
2018-07-13T12:38:21.479Z,240
2018-07-13T12:39:21.723Z,240
2018-07-13T12:40:21.246Z,245
2018-07-13T12:41:21.754Z,240
2018-07-13T12:42:21.301Z,240
2018-07-13T12:43:21.753Z,240
2018-07-13T12:44:21.267Z,245
2018-07-13T12:45:22.018Z,240
2018-07-13T12:46:21.814Z,240
2018-07-13T12:47:21.269Z,245
2018-07-13T12:48:21.780Z,245
2018-07-13T12:49:21.762Z,240
2018-07-13T12:50:21.794Z,240
2018-07-13T12:51:21.302Z,240
2018-07-13T12:52:21.822Z,240
2018-07-13T12:53:21.813Z,235
2018-07-13T12:54:22.012Z,235
2018-07-13T12:55:22.080Z,235
2018-07-13T12:56:21.835Z,230
2018-07-13T12:57:21.331Z,230
2018-07-13T12:58:22.088Z,230
2018-07-13T12:59:22.186Z,225
2018-07-13T13:00:21.842Z,225
2018-07-13T13:01:21.112Z,230
2018-07-13T13:02:22.134Z,230
2018-07-13T13:03:21.862Z,225
2018-07-13T13:04:21.360Z,230
2018-07-13T13:05:21.887Z,230
2018-07-13T13:06:21.608Z,230
2018-07-13T13:07:21.634Z,245
2018-07-13T13:08:21.617Z,240
2018-07-13T13:09:21.357Z,240
2018-07-13T13:10:22.121Z,240
2018-07-13T13:11:22.172Z,240
2018-07-13T13:12:21.894Z,230
2018-07-13T13:13:21.448Z,240
2018-07-13T13:14:21.928Z,240
2018-07-13T13:15:22.302Z,240
2018-07-13T13:16:21.955Z,245
2018-07-13T13:17:21.952Z,245
2018-07-13T13:18:21.978Z,245
2018-07-13T13:19:22.228Z,245
2018-07-13T13:20:21.966Z,240
2018-07-13T13:21:21.453Z,235
2018-07-13T13:22:21.729Z,235
2018-07-13T13:23:21.704Z,235
2018-07-13T13:24:21.729Z,235
2018-07-13T13:25:22.074Z,230
2018-07-13T13:26:22.239Z,225
2018-07-13T13:27:21.743Z,220
2018-07-13T13:28:21.757Z,220
2018-07-13T13:29:22.162Z,215
2018-07-13T13:30:22.014Z,215
2018-07-13T13:31:22.276Z,215
2018-07-13T13:32:22.019Z,180
2018-07-13T13:33:22.027Z,160
2018-07-13T13:34:21.773Z,160
2018-07-13T13:35:21.808Z,160
2018-07-13T13:36:22.040Z,165
2018-07-13T13:37:22.036Z,160
2018-07-13T13:38:21.778Z,165
2018-07-13T13:39:22.036Z,195
2018-07-13T13:40:22.051Z,210
2018-07-13T13:41:21.817Z,210
2018-07-13T13:42:21.816Z,210
2018-07-13T13:43:22.087Z,215
2018-07-13T13:44:22.334Z,220
2018-07-13T13:45:22.095Z,220
2018-07-13T13:46:22.115Z,220
2018-07-13T13:47:22.352Z,220
2018-07-13T13:48:22.098Z,220
2018-07-13T13:49:22.369Z,225
2018-07-13T13:50:21.867Z,225
2018-07-13T13:51:22.130Z,225
2018-07-13T13:52:22.129Z,225
2018-07-13T13:53:22.141Z,225
2018-07-13T13:54:22.142Z,225
2018-07-13T13:55:21.883Z,220
2018-07-13T13:56:22.415Z,220
2018-07-13T13:57:22.136Z,225
2018-07-13T13:58:21.897Z,220
2018-07-13T13:59:21.932Z,220
2018-07-13T14:00:22.421Z,220
2018-07-13T14:01:21.973Z,220
2018-07-13T14:02:21.990Z,215
2018-07-13T14:03:21.921Z,215
2018-07-13T14:04:21.977Z,215
2018-07-13T14:05:22.670Z,210
2018-07-13T14:06:22.450Z,210
2018-07-13T14:07:21.976Z,210
2018-07-13T14:08:22.460Z,210
2018-07-13T14:09:23.745Z,210
2018-07-13T14:10:21.969Z,215
2018-07-13T14:11:22.483Z,210
2018-07-13T14:12:22.804Z,215
2018-07-13T14:13:22.503Z,210
2018-07-13T14:14:23.054Z,215
2018-07-13T14:15:22.326Z,210
2018-07-13T14:16:22.251Z,215
2018-07-13T14:17:22.513Z,215
2018-07-13T14:18:22.018Z,215
2018-07-13T14:19:22.287Z,210
2018-07-13T14:20:22.418Z,210
2018-07-13T14:21:22.833Z,210
2018-07-13T14:22:22.036Z,210
2018-07-13T14:23:22.028Z,210
2018-07-13T14:24:22.049Z,210
2018-07-13T14:25:22.329Z,210
2018-07-13T14:26:22.318Z,210
2018-07-13T14:27:22.312Z,210
2018-07-13T14:28:22.229Z,210
2018-07-13T14:29:22.320Z,210
2018-07-13T14:30:22.354Z,210
2018-07-13T14:31:22.328Z,210
2018-07-13T14:32:22.341Z,210
2018-07-13T14:33:22.586Z,210
2018-07-13T14:34:22.313Z,210
2018-07-13T14:35:22.078Z,210
2018-07-13T14:36:22.079Z,210
2018-07-13T14:37:22.345Z,210
2018-07-13T14:38:22.123Z,210
2018-07-13T14:39:22.122Z,210
2018-07-13T14:40:23.069Z,210
2018-07-13T14:41:22.151Z,210